createdAt,value
2019-06-10T00:01:11.799Z,2.00
2019-06-10T00:06:05.710Z,2.17
2019-06-10T00:11:03.361Z,2.60
2019-06-10T00:15:56.613Z,2.20
2019-06-10T00:20:51.264Z,1.90
2019-06-10T00:25:45.054Z,1.70
2019-06-10T00:30:40.882Z,1.97
2019-06-10T00:35:33.944Z,2.07
2019-06-10T00:40:27.521Z,2.20
2019-06-10T00:45:21.668Z,2.43
2019-06-10T00:50:15.228Z,2.00
2019-06-10T00:55:10.014Z,2.10
2019-06-10T01:00:14.646Z,1.90
2019-06-10T01:05:00.954Z,1.93
2019-06-10T01:09:54.548Z,2.07
2019-06-10T01:14:48.020Z,1.80
2019-06-10T01:19:41.622Z,2.30
2019-06-10T01:24:36.874Z,2.03
2019-06-10T01:29:32.208Z,2.07
2019-06-10T01:34:25.823Z,2.13
2019-06-10T01:39:19.297Z,2.07
2019-06-10T01:44:14.253Z,2.10
2019-06-10T01:49:09.541Z,2.30
2019-06-10T01:54:03.478Z,1.90
2019-06-10T01:58:57.429Z,2.00
2019-06-10T02:03:51.873Z,2.00
2019-06-10T02:08:45.512Z,2.30
2019-06-10T02:13:40.930Z,2.03
2019-06-10T02:18:34.576Z,1.90
2019-06-10T02:23:28.031Z,2.47
2019-06-10T02:28:23.180Z,2.30
2019-06-10T02:33:20.939Z,2.50
2019-06-10T02:38:17.572Z,2.50
2019-06-10T02:43:09.343Z,2.10
2019-06-10T02:48:04.100Z,2.40
2019-06-10T02:52:57.973Z,2.13
2019-06-10T02:57:53.315Z,2.23
2019-06-10T03:02:46.497Z,2.03
2019-06-10T03:07:44.009Z,2.30
2019-06-10T03:12:36.129Z,2.30
2019-06-10T03:17:32.341Z,2.37
2019-06-10T03:22:25.966Z,2.50
2019-06-10T03:27:21.099Z,2.20
2019-06-10T03:32:17.701Z,2.80
2019-06-10T03:37:12.816Z,2.67
2019-06-10T03:42:05.859Z,2.40
2019-06-10T03:46:59.485Z,2.60
2019-06-10T03:51:53.069Z,2.70
2019-06-10T03:56:49.101Z,2.93
2019-06-10T04:01:42.853Z,2.60
2019-06-10T04:06:36.320Z,3.10
2019-06-10T04:11:32.287Z,2.97
2019-06-10T04:16:25.785Z,3.10
2019-06-10T04:21:22.441Z,2.90
2019-06-10T04:26:15.507Z,3.17
2019-06-10T04:31:08.782Z,3.00
2019-06-10T04:36:03.101Z,2.60
2019-06-10T04:40:56.706Z,2.87
2019-06-10T04:45:52.750Z,2.97
2019-06-10T04:50:46.632Z,3.07
2019-06-10T04:55:40.193Z,3.13
2019-06-10T05:00:33.757Z,2.77
2019-06-10T05:05:28.478Z,3.20
2019-06-10T05:10:24.089Z,3.03
2019-06-10T05:15:17.800Z,3.40
2019-06-10T05:20:12.584Z,3.10
2019-06-10T05:25:06.379Z,2.90
2019-06-10T05:30:02.077Z,3.10
2019-06-10T05:34:55.269Z,3.20
2019-06-10T05:39:49.078Z,3.10
2019-06-10T05:44:43.141Z,2.77
2019-06-10T05:49:36.772Z,2.97
2019-06-10T05:54:33.564Z,2.80
2019-06-10T05:59:25.873Z,2.60
2019-06-10T06:04:19.321Z,2.17
2019-06-10T06:09:13.163Z,2.97
2019-06-10T06:14:06.863Z,2.70
2019-06-10T06:19:00.264Z,2.70
2019-06-10T06:23:53.848Z,2.80
2019-06-10T06:28:47.173Z,2.90
2019-06-10T06:33:42.985Z,2.83
2019-06-10T06:38:39.602Z,2.90
2019-06-10T06:43:39.994Z,2.97
2019-06-10T06:48:28.459Z,2.80
2019-06-10T06:53:32.414Z,2.90
2019-06-10T06:58:17.247Z,3.33
2019-06-10T07:03:12.569Z,2.93
2019-06-10T07:08:06.133Z,3.43
2019-06-10T07:13:03.393Z,3.27
2019-06-10T07:17:58.247Z,3.53
2019-06-10T07:22:53.317Z,3.20
2019-06-10T07:27:47.162Z,2.80
2019-06-10T07:32:45.382Z,3.67
2019-06-10T07:37:36.636Z,3.80
2019-06-10T07:42:33.277Z,3.60
2019-06-10T07:47:26.831Z,3.30
2019-06-10T07:52:23.318Z,3.50
2019-06-10T07:57:15.769Z,3.70
2019-06-10T08:02:09.500Z,4.30
2019-06-10T08:07:03.394Z,4.53
2019-06-10T08:11:56.817Z,3.50
2019-06-10T08:16:52.900Z,3.70
2019-06-10T08:21:48.942Z,3.40
2019-06-10T08:26:45.521Z,3.67
2019-06-10T08:31:38.923Z,3.10
2019-06-10T08:36:33.284Z,2.77
2019-06-10T08:41:27.278Z,3.03
2019-06-10T08:46:22.595Z,2.70
2019-06-10T08:51:16.380Z,2.70
2019-06-10T08:56:10.024Z,2.73
2019-06-10T09:01:03.583Z,2.80
2019-06-10T09:05:58.428Z,2.70
2019-06-10T09:10:55.102Z,2.03
2019-06-10T09:16:06.904Z,2.60
2019-06-10T09:20:48.512Z,2.33
2019-06-10T09:25:41.615Z,2.50
2019-06-10T09:30:34.974Z,2.50
2019-06-10T09:35:28.555Z,2.40
2019-06-10T09:40:26.441Z,2.63
2019-06-10T09:45:22.281Z,2.40
2019-06-10T09:50:17.300Z,2.50
2019-06-10T09:55:12.913Z,2.83
2019-06-10T10:00:08.740Z,2.90
2019-06-10T10:05:02.984Z,3.00
2019-06-10T10:09:57.405Z,2.60
2019-06-10T10:14:52.450Z,3.07
2019-06-10T10:19:48.667Z,2.77
2019-06-10T10:24:42.948Z,2.80
2019-06-10T10:29:37.402Z,3.07
2019-06-10T10:34:33.176Z,2.80
2019-06-10T10:39:26.951Z,3.30
2019-06-10T10:44:20.735Z,2.63
2019-06-10T10:49:15.994Z,2.20
2019-06-10T10:54:23.731Z,2.53
2019-06-10T10:59:04.948Z,2.80
2019-06-10T11:03:59.410Z,2.43
2019-06-10T11:08:55.873Z,2.47
2019-06-10T11:13:53.334Z,2.30
2019-06-10T11:18:47.128Z,2.50
2019-06-10T11:23:43.561Z,2.50
2019-06-10T11:28:36.297Z,2.87
2019-06-10T11:33:32.655Z,2.80
2019-06-10T11:38:25.272Z,3.00
2019-06-10T11:43:18.856Z,2.60
2019-06-10T11:48:13.874Z,2.13
2019-06-10T11:53:07.228Z,2.60
2019-06-10T11:58:00.722Z,2.87
2019-06-10T12:02:57.271Z,2.80
2019-06-10T12:07:51.085Z,2.80
2019-06-10T12:12:45.175Z,2.97
2019-06-10T12:17:46.955Z,3.03
2019-06-10T12:22:33.989Z,2.73
2019-06-10T12:27:27.593Z,2.60
2019-06-10T12:32:22.555Z,2.43
2019-06-10T12:37:16.177Z,2.40
2019-06-10T12:42:13.480Z,2.40
2019-06-10T12:47:07.942Z,2.43
2019-06-10T12:52:02.166Z,2.90
2019-06-10T12:56:56.651Z,2.40
2019-06-10T13:01:53.121Z,2.30
2019-06-10T13:06:48.427Z,2.50
2019-06-10T13:11:43.367Z,2.53
2019-06-10T13:16:37.209Z,2.40
2019-06-10T13:21:32.831Z,2.17
2019-06-10T13:26:25.910Z,2.50
2019-06-10T13:31:19.378Z,2.47
2019-06-10T13:36:12.875Z,2.60
2019-06-10T13:41:07.715Z,2.43
2019-06-10T13:46:03.100Z,2.40
2019-06-10T13:50:56.878Z,2.70
2019-06-10T13:55:55.157Z,2.70
2019-06-10T14:00:46.781Z,2.70
2019-06-10T14:05:44.804Z,2.10
2019-06-10T14:10:36.714Z,2.63
2019-06-10T14:15:32.765Z,1.77
2019-06-10T14:20:25.653Z,2.43
2019-06-10T14:25:19.206Z,2.57
2019-06-10T14:30:15.522Z,2.40
2019-06-10T14:35:11.800Z,2.17
2019-06-10T14:40:07.060Z,2.27
2019-06-10T14:45:01.681Z,2.67
2019-06-10T14:49:55.563Z,2.30
2019-06-10T14:54:49.206Z,2.60
2019-06-10T14:59:42.786Z,2.23
2019-06-10T15:04:36.384Z,2.17
2019-06-10T15:09:30.013Z,2.37
2019-06-10T15:14:23.614Z,2.23
2019-06-10T15:19:24.457Z,2.30
2019-06-10T15:24:14.006Z,2.53
2019-06-10T15:29:07.521Z,2.13
2019-06-10T15:34:02.882Z,2.33
2019-06-10T15:38:56.371Z,2.20
2019-06-10T15:43:49.893Z,2.83
2019-06-10T15:48:45.200Z,2.50
2019-06-10T15:53:38.757Z,2.70
2019-06-10T15:58:32.406Z,2.17
2019-06-10T16:03:28.443Z,2.47
2019-06-10T16:08:22.593Z,1.90
2019-06-10T16:13:16.694Z,2.20
2019-06-10T16:18:13.208Z,2.50
2019-06-10T16:23:06.065Z,2.40
2019-06-10T16:27:59.433Z,2.10
2019-06-10T16:32:54.593Z,2.23
2019-06-10T16:37:48.151Z,2.30
2019-06-10T16:42:43.091Z,2.30
2019-06-10T16:47:36.781Z,2.23
2019-06-10T16:52:30.453Z,2.10
2019-06-10T16:57:25.575Z,2.33
2019-06-10T17:02:22.338Z,2.37
2019-06-10T17:07:15.208Z,2.10
2019-06-10T17:12:08.635Z,2.33
2019-06-10T17:17:03.634Z,2.40
2019-06-10T17:21:57.375Z,2.90
2019-06-10T17:26:53.071Z,2.33
2019-06-10T17:31:46.481Z,2.57
2019-06-10T17:36:42.531Z,2.50
2019-06-10T17:41:35.590Z,2.00
2019-06-10T17:46:30.647Z,2.00
2019-06-10T17:51:26.492Z,3.67
2019-06-10T17:56:24.258Z,3.80
2019-06-10T18:01:16.873Z,3.80
2019-06-10T18:06:13.134Z,3.77
2019-06-10T18:11:05.804Z,4.00
2019-06-10T18:15:59.513Z,3.50
2019-06-10T18:20:53.771Z,3.87
2019-06-10T18:25:47.584Z,3.00
2019-06-10T18:30:43.289Z,2.67
2019-06-10T18:35:37.657Z,2.63
2019-06-10T18:40:31.630Z,3.10
2019-06-10T18:45:25.475Z,2.60
2019-06-10T18:50:19.408Z,3.33
2019-06-10T18:55:13.099Z,2.73
2019-06-10T19:00:11.888Z,2.60
2019-06-10T19:05:05.261Z,2.10
2019-06-10T19:10:02.363Z,2.20
2019-06-10T19:14:55.858Z,2.30
2019-06-10T19:19:49.224Z,2.70
2019-06-10T19:24:44.787Z,2.40
2019-06-10T19:29:42.957Z,3.53
2019-06-10T19:34:35.338Z,3.00
2019-06-10T19:39:28.980Z,2.27
2019-06-10T19:44:24.087Z,2.53
2019-06-10T19:49:18.499Z,2.33
2019-06-10T19:54:12.820Z,2.27
2019-06-10T19:59:06.389Z,1.70
2019-06-10T20:04:02.638Z,1.70
2019-06-10T20:08:56.298Z,2.03
2019-06-10T20:13:49.746Z,2.30
2019-06-10T20:18:47.632Z,2.47
2019-06-10T20:23:39.345Z,1.90
2019-06-10T20:28:32.919Z,2.47
2019-06-10T20:33:36.225Z,2.50
2019-06-10T20:38:27.599Z,2.80
2019-06-10T20:43:22.388Z,2.70
2019-06-10T20:48:15.580Z,2.00
2019-06-10T20:53:17.491Z,2.20
2019-06-10T20:58:07.253Z,2.30
2019-06-10T21:03:03.005Z,2.13
2019-06-10T21:07:58.615Z,2.30
2019-06-10T21:12:51.927Z,2.20
2019-06-10T21:17:46.436Z,2.10
2019-06-10T21:22:40.481Z,2.03
2019-06-10T21:27:35.507Z,1.93
2019-06-10T21:32:28.971Z,1.60
2019-06-10T21:37:22.753Z,1.77
2019-06-10T21:42:16.331Z,1.70
2019-06-10T21:47:09.877Z,2.00
2019-06-10T21:52:03.171Z,1.90
2019-06-10T21:56:56.513Z,1.60
2019-06-10T22:01:49.650Z,2.30
2019-06-10T22:06:43.869Z,2.30
2019-06-10T22:11:37.436Z,2.00
2019-06-10T22:16:32.899Z,1.90
2019-06-10T22:21:26.287Z,1.80
2019-06-10T22:26:22.374Z,2.23
2019-06-10T22:31:22.598Z,2.00
2019-06-10T22:36:12.952Z,3.20
2019-06-10T22:41:06.475Z,2.43
2019-06-10T22:46:00.174Z,2.80
2019-06-10T22:50:53.729Z,2.80
2019-06-10T22:55:48.375Z,1.73
2019-06-10T23:00:43.741Z,2.33
2019-06-10T23:05:37.440Z,1.57
2019-06-10T23:10:31.012Z,1.60
2019-06-10T23:15:24.517Z,1.73
2019-06-10T23:20:18.203Z,1.80
2019-06-10T23:25:12.658Z,1.90
2019-06-10T23:30:11.524Z,1.30
2019-06-10T23:35:02.530Z,1.50
2019-06-10T23:39:56.821Z,1.70
2019-06-10T23:44:50.965Z,1.90
2019-06-10T23:49:44.412Z,1.90
2019-06-10T23:54:38.372Z,1.67
2019-06-10T23:59:33.287Z,1.70
